createdAt,value
2023-02-24T00:00:32.099Z,76.59
2023-02-24T00:05:35.635Z,76.59
2023-02-24T00:10:37.598Z,76.84
2023-02-24T00:15:39.533Z,76.87
2023-02-24T00:20:41.236Z,77.11
2023-02-24T00:25:42.956Z,77.19
2023-02-24T00:30:46.424Z,77.16
2023-02-24T00:35:48.135Z,77.39
2023-02-24T00:40:49.917Z,77.27
2023-02-24T00:45:51.677Z,77.51
2023-02-24T00:50:55.815Z,77.56
2023-02-24T00:56:01.773Z,77.41
2023-02-24T01:01:04.882Z,77.61
2023-02-24T01:06:07.658Z,77.34
2023-02-24T01:11:28.607Z,77.33
2023-02-24T01:16:30.317Z,77.21
2023-02-24T01:21:32.136Z,77.31
2023-02-24T01:26:33.845Z,77.24
2023-02-24T01:31:38.717Z,76.96
2023-02-24T01:36:45.084Z,76.81
2023-02-24T01:41:49.909Z,76.53
2023-02-24T01:46:53.382Z,76.43
2023-02-24T01:52:02.120Z,76.18
2023-02-24T01:57:05.967Z,76.05
2023-02-24T02:02:09.692Z,76.03
2023-02-24T02:07:15.747Z,75.55
2023-02-24T02:12:17.568Z,75.93
2023-02-24T02:17:47.477Z,75.80
2023-02-24T02:23:07.563Z,76.01
2023-02-24T02:28:32.745Z,76.52
2023-02-24T02:34:00.013Z,76.83
2023-02-24T02:39:17.953Z,77.21
2023-02-24T02:44:27.501Z,77.46
2023-02-24T02:49:36.359Z,78.50
2023-02-24T02:54:49.940Z,79.73
2023-02-24T03:00:01.465Z,82.02
2023-02-24T03:05:09.438Z,85.18
2023-02-24T03:10:20.953Z,88.04
2023-02-24T03:15:25.016Z,89.55
2023-02-24T03:20:32.888Z,90.14
2023-02-24T03:26:16.949Z,91.56
2023-02-24T03:31:27.853Z,92.20
2023-02-24T03:36:30.738Z,93.09
2023-02-24T03:41:57.804Z,94.07
2023-02-24T03:47:10.916Z,94.39
2023-02-24T03:52:39.059Z,94.84
2023-02-24T03:58:18.475Z,94.56
2023-02-24T04:03:57.706Z,95.44
2023-02-24T04:09:27.734Z,95.57
2023-02-24T04:15:08.697Z,95.88
2023-02-24T04:20:17.100Z,96.02
2023-02-24T04:25:27.069Z,96.32
2023-02-24T04:30:34.372Z,96.67
2023-02-24T04:35:37.908Z,97.20
2023-02-24T04:40:40.910Z,97.54
2023-02-24T04:45:42.879Z,97.87
2023-02-24T04:50:44.754Z,98.01
2023-02-24T04:55:48.999Z,98.09
2023-02-24T05:06:23.770Z,98.06
2023-02-24T05:11:25.562Z,97.91
2023-02-24T05:16:28.968Z,97.51
2023-02-24T05:21:36.955Z,97.35
2023-02-24T05:26:41.802Z,97.30
2023-02-24T05:31:44.135Z,96.73
2023-02-24T05:36:47.074Z,96.77
2023-02-24T05:41:49.976Z,97.02
2023-02-24T05:47:00.858Z,96.88
2023-02-24T05:52:07.791Z,96.67
2023-02-24T05:57:13.106Z,96.91
2023-02-24T06:02:17.616Z,97.21
2023-02-24T06:07:24.848Z,96.94
2023-02-24T06:12:31.942Z,95.86
2023-02-24T06:17:33.826Z,95.54
2023-02-24T06:22:42.593Z,95.32
2023-02-24T06:27:45.017Z,95.34
2023-02-24T06:32:46.914Z,95.87
2023-02-24T06:37:48.799Z,96.06
2023-02-24T06:42:55.252Z,97.18
2023-02-24T06:47:58.063Z,97.86
2023-02-24T06:53:00.954Z,98.63
2023-02-24T06:58:05.898Z,98.98
2023-02-24T07:03:15.844Z,98.98
2023-02-24T07:08:23.171Z,99.20
2023-02-24T07:13:28.541Z,98.69
2023-02-24T07:18:31.012Z,99.14
2023-02-24T07:23:32.792Z,99.04
2023-02-24T07:28:34.567Z,99.31
2023-02-24T07:33:37.275Z,99.67
2023-02-24T07:38:39.480Z,99.65
2023-02-24T07:43:43.936Z,99.24
2023-02-24T07:48:46.548Z,99.47
2023-02-24T07:53:54.181Z,99.59
2023-02-24T07:59:01.960Z,99.29
2023-02-24T08:04:08.290Z,99.80
2023-02-24T08:09:20.635Z,99.87
2023-02-24T08:14:25.524Z,99.24
2023-02-24T08:19:47.628Z,98.85
2023-02-24T08:25:00.719Z,98.90
2023-02-24T08:30:02.959Z,99.29
2023-02-24T08:35:14.596Z,99.12
2023-02-24T08:40:33.141Z,99.13
2023-02-24T08:45:34.855Z,99.62
2023-02-24T08:50:39.490Z,99.54
2023-02-24T08:55:42.842Z,99.42
2023-02-24T09:00:53.400Z,99.35
2023-02-24T09:05:58.001Z,99.56
2023-02-24T09:11:02.009Z,99.36
2023-02-24T09:16:05.198Z,99.68
2023-02-24T09:21:30.872Z,99.27
2023-02-24T09:26:43.519Z,98.46
2023-02-24T09:31:55.347Z,97.94
2023-02-24T09:37:03.727Z,97.85
2023-02-24T09:42:13.063Z,96.99
2023-02-24T09:47:31.356Z,95.68
2023-02-24T09:52:42.319Z,93.51
2023-02-24T09:58:26.989Z,93.28
2023-02-24T10:03:42.418Z,91.61
2023-02-24T10:09:11.435Z,89.26
2023-02-24T10:14:19.585Z,88.89
2023-02-24T10:19:30.587Z,87.54
2023-02-24T10:24:41.358Z,87.44
2023-02-24T10:29:50.906Z,86.16
2023-02-24T10:34:53.359Z,85.22
2023-02-24T10:40:10.243Z,86.68
2023-02-24T10:45:26.367Z,81.47
2023-02-24T10:50:55.302Z,78.59
2023-02-24T10:56:17.723Z,76.93
2023-02-24T11:01:40.524Z,77.51
2023-02-24T11:06:52.578Z,77.53
2023-02-24T11:12:34.902Z,78.75
2023-02-24T11:17:38.346Z,78.63
2023-02-24T11:22:43.188Z,78.51
2023-02-24T11:27:46.531Z,78.00
2023-02-24T11:33:00.521Z,77.52
2023-02-24T11:38:16.104Z,76.77
2023-02-24T11:43:20.964Z,75.28
2023-02-24T11:48:34.162Z,75.06
2023-02-24T11:53:55.408Z,76.14
2023-02-24T11:59:07.525Z,76.54
2023-02-24T12:04:21.746Z,77.87
2023-02-24T12:09:30.219Z,79.05
2023-02-24T12:14:40.901Z,78.68
2023-02-24T12:20:05.141Z,79.88
2023-02-24T12:25:12.929Z,80.44
2023-02-24T12:30:47.351Z,80.95
2023-02-24T12:36:20.900Z,82.29
2023-02-24T12:41:39.295Z,82.31
2023-02-24T12:46:41.042Z,82.45
2023-02-24T12:52:00.864Z,83.28
2023-02-24T12:57:11.897Z,83.51
2023-02-24T13:02:57.700Z,84.22
2023-02-24T13:08:14.475Z,84.31
2023-02-24T13:13:46.440Z,84.16
2023-02-24T13:18:48.301Z,84.19
2023-02-24T13:23:58.148Z,83.37
2023-02-24T13:29:18.582Z,83.20
2023-02-24T13:34:32.980Z,82.07
2023-02-24T13:39:35.996Z,82.36
2023-02-24T13:45:02.999Z,83.38
2023-02-24T13:50:20.078Z,84.86
2023-02-24T13:55:46.969Z,84.63
2023-02-24T14:01:14.712Z,86.53
2023-02-24T14:06:25.297Z,90.07
2023-02-24T14:11:32.437Z,91.54
2023-02-24T14:16:39.868Z,92.50
2023-02-24T14:21:49.119Z,92.62
2023-02-24T14:26:56.551Z,93.28
2023-02-24T14:31:59.502Z,93.43
2023-02-24T14:37:03.990Z,92.56
2023-02-24T14:42:14.795Z,92.54
2023-02-24T14:47:19.018Z,92.31
2023-02-24T14:52:38.392Z,89.58
2023-02-24T14:57:45.246Z,87.34
2023-02-24T15:02:52.889Z,86.29
2023-02-24T15:07:54.688Z,84.32
2023-02-24T15:13:01.073Z,84.45
2023-02-24T15:18:25.781Z,85.10
2023-02-24T15:23:47.561Z,85.00
2023-02-24T15:28:56.454Z,83.24
2023-02-24T15:34:03.379Z,83.42
2023-02-24T15:39:15.695Z,82.68
2023-02-24T15:44:33.970Z,82.85
2023-02-24T15:49:35.677Z,83.50
2023-02-24T15:54:39.293Z,83.76
2023-02-24T15:59:41.190Z,83.60
2023-02-24T16:04:42.993Z,84.12
2023-02-24T16:09:46.922Z,84.45
2023-02-24T16:15:02.188Z,84.97
2023-02-24T16:20:08.602Z,85.10
2023-02-24T16:25:15.294Z,85.59
2023-02-24T16:30:22.461Z,87.20
2023-02-24T16:35:25.943Z,90.11
2023-02-24T16:40:30.950Z,91.05
2023-02-24T16:45:34.494Z,86.50
2023-02-24T16:50:39.508Z,89.52
2023-02-24T16:55:43.278Z,89.84
2023-02-24T17:00:48.007Z,90.57
2023-02-24T17:05:51.636Z,91.78
2023-02-24T17:10:54.230Z,92.91
2023-02-24T17:15:57.440Z,94.23
2023-02-24T17:20:59.719Z,94.57
2023-02-24T17:26:02.715Z,94.84
2023-02-24T17:31:05.525Z,94.94
2023-02-24T17:36:07.522Z,95.50
2023-02-24T17:41:09.912Z,96.23
2023-02-24T17:46:11.689Z,97.04
2023-02-24T17:51:20.036Z,97.13
2023-02-24T17:56:22.204Z,97.05
2023-02-24T18:01:26.113Z,97.23
2023-02-24T18:06:27.877Z,97.28
2023-02-24T18:11:29.635Z,97.13
2023-02-24T18:16:31.476Z,96.98
2023-02-24T18:21:33.374Z,96.88
2023-02-24T18:26:35.705Z,96.62
2023-02-24T18:31:37.669Z,96.40
2023-02-24T18:36:40.456Z,96.78
2023-02-24T18:41:42.462Z,96.93
2023-02-24T18:46:44.394Z,97.09
2023-02-24T18:51:48.886Z,97.05
2023-02-24T18:56:50.928Z,97.64
2023-02-24T19:01:53.998Z,98.07
2023-02-24T19:06:55.817Z,98.17
2023-02-24T19:11:57.584Z,97.41
2023-02-24T19:17:01.241Z,97.18
2023-02-24T19:22:03.024Z,97.59
2023-02-24T19:27:04.781Z,98.23
2023-02-24T19:32:06.654Z,98.89
2023-02-24T19:37:08.577Z,99.22
2023-02-24T19:42:10.391Z,99.73
2023-02-24T19:47:12.138Z,100.00
2023-02-24T19:52:14.078Z,100.00
2023-02-24T19:57:15.933Z,100.00
2023-02-24T20:02:17.761Z,100.00
2023-02-24T20:07:19.673Z,100.00
2023-02-24T20:12:21.573Z,99.91
2023-02-24T20:17:23.385Z,99.81
2023-02-24T20:22:25.129Z,99.84
2023-02-24T20:27:26.905Z,100.00
2023-02-24T20:32:28.746Z,100.00
2023-02-24T20:37:30.528Z,100.00
2023-02-24T20:42:32.356Z,100.00
2023-02-24T20:47:34.077Z,100.00
2023-02-24T20:52:37.660Z,100.00
2023-02-24T20:57:40.559Z,100.00
2023-02-24T21:02:42.808Z,100.00
2023-02-24T21:07:44.595Z,100.00
2023-02-24T21:12:47.369Z,100.00
2023-02-24T21:17:49.082Z,100.00
2023-02-24T21:22:52.506Z,100.00
2023-02-24T21:27:57.332Z,100.00
2023-02-24T21:32:59.100Z,100.00
2023-02-24T21:38:00.903Z,100.00
2023-02-24T21:43:04.512Z,100.00
2023-02-24T21:48:06.797Z,100.00
2023-02-24T21:53:08.786Z,100.00
2023-02-24T21:58:10.495Z,100.00
2023-02-24T22:03:12.581Z,99.97
2023-02-24T22:08:14.511Z,99.65
2023-02-24T22:13:22.786Z,99.43
2023-02-24T22:18:24.656Z,98.85
2023-02-24T22:23:26.721Z,98.40
2023-02-24T22:28:28.493Z,98.16
2023-02-24T22:33:32.310Z,98.42
2023-02-24T22:38:35.740Z,99.85
2023-02-24T22:43:37.699Z,100.00
2023-02-24T22:48:40.595Z,100.00
2023-02-24T22:53:46.673Z,99.98
2023-02-24T22:58:48.995Z,100.00
2023-02-24T23:03:51.711Z,99.88
2023-02-24T23:08:54.514Z,100.00
2023-02-24T23:13:58.979Z,100.00
2023-02-24T23:19:06.092Z,100.00
2023-02-24T23:24:11.087Z,100.00
2023-02-24T23:29:15.499Z,100.00
2023-02-24T23:34:18.887Z,100.00
2023-02-24T23:39:23.646Z,100.00
2023-02-24T23:44:25.776Z,100.00
2023-02-24T23:49:36.278Z,100.00
2023-02-24T23:54:41.036Z,100.00
2023-02-24T23:59:43.044Z,100.00
